createdAt,value
2022-10-11T00:01:58.221Z,70.90
2022-10-11T00:07:03.421Z,70.13
2022-10-11T00:12:07.378Z,70.20
2022-10-11T00:17:10.857Z,70.01
2022-10-11T00:22:16.103Z,70.71
2022-10-11T00:27:19.616Z,71.02
2022-10-11T00:32:23.169Z,70.72
2022-10-11T00:37:28.120Z,69.87
2022-10-11T00:42:31.513Z,70.30
2022-10-11T00:47:35.172Z,70.68
2022-10-11T00:52:43.500Z,71.90
2022-10-11T00:57:49.906Z,70.99
2022-10-11T01:02:53.670Z,71.00
2022-10-11T01:08:00.142Z,70.25
2022-10-11T01:13:14.361Z,70.38
2022-10-11T01:18:23.318Z,71.04
2022-10-11T01:23:55.344Z,70.61
2022-10-11T01:29:10.946Z,70.31
2022-10-11T01:34:25.409Z,70.53
2022-10-11T01:39:34.539Z,71.79
2022-10-11T01:44:40.721Z,69.66
2022-10-11T01:49:46.231Z,70.76
2022-10-11T01:55:10.187Z,70.91
2022-10-11T02:00:17.170Z,70.40
2022-10-11T02:05:30.485Z,71.13
2022-10-11T02:10:41.339Z,71.65
2022-10-11T02:15:48.182Z,71.33
2022-10-11T02:20:53.999Z,70.13
2022-10-11T02:25:59.011Z,71.13
2022-10-11T02:31:06.076Z,71.94
2022-10-11T02:36:17.501Z,71.77
2022-10-11T02:41:28.935Z,71.53
2022-10-11T02:46:32.618Z,70.53
2022-10-11T02:51:37.606Z,71.62
2022-10-11T02:56:41.142Z,71.38
2022-10-11T03:01:45.000Z,70.91
2022-10-11T03:06:49.888Z,72.26
2022-10-11T03:11:53.549Z,71.79
2022-10-11T03:17:12.095Z,71.42
2022-10-11T03:22:22.749Z,71.07
2022-10-11T03:27:26.261Z,71.38
2022-10-11T03:32:30.169Z,71.86
2022-10-11T03:37:35.377Z,71.67
2022-10-11T03:42:39.424Z,71.31
2022-10-11T03:47:42.856Z,72.40
2022-10-11T03:52:47.746Z,72.43
2022-10-11T03:57:51.471Z,72.63
2022-10-11T04:02:54.882Z,71.61
2022-10-11T04:07:59.711Z,72.18
2022-10-11T04:13:03.195Z,72.05
2022-10-11T04:18:07.298Z,71.71
2022-10-11T04:23:12.171Z,72.04
2022-10-11T04:28:15.678Z,72.49
2022-10-11T04:33:19.242Z,72.64
2022-10-11T04:38:24.479Z,72.32
2022-10-11T04:43:27.905Z,72.92
2022-10-11T04:48:31.771Z,73.12
2022-10-11T04:53:36.868Z,72.71
2022-10-11T04:58:41.911Z,72.63
2022-10-11T05:03:45.351Z,72.94
2022-10-11T05:08:50.439Z,72.85
2022-10-11T05:13:54.381Z,74.14
2022-10-11T05:18:57.916Z,75.16
2022-10-11T05:24:02.811Z,75.01
2022-10-11T05:29:06.474Z,73.83
2022-10-11T05:34:10.197Z,74.03
2022-10-11T05:39:20.309Z,74.26
2022-10-11T05:44:24.756Z,72.77
2022-10-11T05:49:28.181Z,71.87
2022-10-11T05:54:33.302Z,71.69
2022-10-11T05:59:37.106Z,71.37
2022-10-11T06:04:41.271Z,71.11
2022-10-11T06:09:46.323Z,71.50
2022-10-11T06:14:49.799Z,71.76
2022-10-11T06:19:53.371Z,71.86
2022-10-11T06:24:58.195Z,71.73
2022-10-11T06:30:02.020Z,70.72
2022-10-11T06:35:06.462Z,70.04
2022-10-11T06:40:12.722Z,69.72
2022-10-11T06:45:16.457Z,68.79
2022-10-11T06:50:34.825Z,68.81
2022-10-11T06:55:39.887Z,68.25
2022-10-11T07:00:43.431Z,67.38
2022-10-11T07:05:47.018Z,68.11
2022-10-11T07:10:52.411Z,65.75
2022-10-11T07:15:56.057Z,64.86
2022-10-11T07:20:59.645Z,65.07
2022-10-11T07:26:05.075Z,63.77
2022-10-11T07:31:10.575Z,61.79
2022-10-11T07:36:14.432Z,61.34
2022-10-11T07:41:20.102Z,60.56
2022-10-11T07:46:24.237Z,61.78
2022-10-11T07:51:27.843Z,61.96
2022-10-11T07:56:32.709Z,60.29
2022-10-11T08:01:36.282Z,59.94
2022-10-11T08:06:39.850Z,58.84
2022-10-11T08:11:44.697Z,59.40
2022-10-11T08:16:48.617Z,58.66
2022-10-11T08:21:52.054Z,58.91
2022-10-11T08:26:56.942Z,59.05
2022-10-11T08:32:00.853Z,57.42
2022-10-11T08:37:04.302Z,55.93
2022-10-11T08:42:16.794Z,55.99
2022-10-11T08:47:24.760Z,55.06
2022-10-11T08:52:45.846Z,54.09
2022-10-11T08:57:55.820Z,53.12
2022-10-11T09:03:08.855Z,53.43
2022-10-11T09:08:22.646Z,52.49
2022-10-11T09:13:45.221Z,52.98
2022-10-11T09:19:05.751Z,52.14
2022-10-11T09:24:23.988Z,52.06
2022-10-11T09:29:47.351Z,52.88
2022-10-11T09:34:58.801Z,54.36
2022-10-11T09:40:07.649Z,54.11
2022-10-11T09:45:18.535Z,56.35
2022-10-11T09:50:25.921Z,54.65
2022-10-11T09:55:35.051Z,53.70
2022-10-11T10:00:39.941Z,54.06
2022-10-11T10:05:44.011Z,52.39
2022-10-11T10:10:55.787Z,52.99
2022-10-11T10:16:04.489Z,52.54
2022-10-11T10:21:13.621Z,52.10
2022-10-11T10:26:19.455Z,52.95
2022-10-11T10:31:26.762Z,52.15
2022-10-11T10:36:34.652Z,53.50
2022-10-11T10:41:38.275Z,52.40
2022-10-11T10:46:56.693Z,52.08
2022-10-11T10:52:20.998Z,52.28
2022-10-11T10:57:30.566Z,52.62
2022-10-11T11:02:45.978Z,54.04
2022-10-11T11:07:55.896Z,53.83
2022-10-11T11:13:09.531Z,54.10
2022-10-11T11:18:29.076Z,53.87
2022-10-11T11:23:40.883Z,55.13
2022-10-11T11:28:55.131Z,54.96
2022-10-11T11:34:11.239Z,53.49
2022-10-11T11:39:20.422Z,53.34
2022-10-11T11:44:30.857Z,54.72
2022-10-11T11:49:39.935Z,53.79
2022-10-11T11:54:51.943Z,52.85
2022-10-11T12:00:02.657Z,51.62
2022-10-11T12:05:19.169Z,51.94
2022-10-11T12:10:30.249Z,53.70
2022-10-11T12:15:34.138Z,51.36
2022-10-11T12:20:41.640Z,52.99
2022-10-11T12:25:45.613Z,52.57
2022-10-11T12:30:54.628Z,53.02
2022-10-11T12:36:07.352Z,52.73
2022-10-11T12:41:38.319Z,53.69
2022-10-11T12:46:59.411Z,53.47
2022-10-11T12:52:07.057Z,54.62
2022-10-11T12:57:47.180Z,55.25
2022-10-11T13:02:51.453Z,56.05
2022-10-11T13:07:59.235Z,55.90
2022-10-11T13:13:04.661Z,55.11
2022-10-11T13:18:08.093Z,55.20
2022-10-11T13:23:24.250Z,56.08
2022-10-11T13:28:34.154Z,55.85
2022-10-11T13:33:44.126Z,56.33
2022-10-11T13:38:56.088Z,55.46
2022-10-11T13:44:01.387Z,55.77
2022-10-11T13:49:24.386Z,56.81
2022-10-11T13:54:55.132Z,57.09
2022-10-11T14:00:02.501Z,57.89
2022-10-11T14:05:25.297Z,57.36
2022-10-11T14:10:30.845Z,58.10
2022-10-11T14:15:35.794Z,58.77
2022-10-11T14:20:40.714Z,59.15
2022-10-11T14:25:45.632Z,59.37
2022-10-11T14:30:49.330Z,59.50
2022-10-11T14:35:52.709Z,58.95
2022-10-11T14:40:57.583Z,59.59
2022-10-11T14:46:00.994Z,60.17
2022-10-11T14:51:05.239Z,59.99
2022-10-11T14:56:10.258Z,60.47
2022-10-11T15:01:14.987Z,60.49
2022-10-11T15:06:20.513Z,60.81
2022-10-11T15:11:25.414Z,62.17
2022-10-11T15:16:28.837Z,63.02
2022-10-11T15:21:32.434Z,63.70
2022-10-11T15:26:37.529Z,64.16
2022-10-11T15:31:41.349Z,64.06
2022-10-11T15:36:44.814Z,64.59
2022-10-11T15:41:49.845Z,65.00
2022-10-11T15:46:53.827Z,64.77
2022-10-11T15:51:57.585Z,65.20
2022-10-11T15:57:02.793Z,65.61
2022-10-11T16:02:06.220Z,65.90
2022-10-11T16:07:09.985Z,65.81
2022-10-11T16:12:14.768Z,66.00
2022-10-11T16:17:18.191Z,66.06
2022-10-11T16:22:21.615Z,66.48
2022-10-11T16:27:26.368Z,66.59
2022-10-11T16:32:30.620Z,66.31
2022-10-11T16:37:34.587Z,66.53
2022-10-11T16:42:41.209Z,66.62
2022-10-11T16:47:45.095Z,67.06
2022-10-11T16:52:48.454Z,67.06
2022-10-11T16:57:53.613Z,67.22
2022-10-11T17:02:57.006Z,66.95
2022-10-11T17:08:00.398Z,67.08
2022-10-11T17:13:05.432Z,67.40
2022-10-11T17:18:08.827Z,67.42
2022-10-11T17:23:12.599Z,67.46
2022-10-11T17:28:17.506Z,67.25
2022-10-11T17:33:20.938Z,67.92
2022-10-11T17:38:27.460Z,67.33
2022-10-11T17:43:32.548Z,67.53
2022-10-11T17:48:39.233Z,67.82
2022-10-11T17:53:43.115Z,67.70
2022-10-11T17:58:49.311Z,67.80
2022-10-11T18:03:55.241Z,67.84
2022-10-11T18:09:02.146Z,68.16
2022-10-11T18:14:07.008Z,67.95
2022-10-11T18:19:13.693Z,68.34
2022-10-11T18:24:18.489Z,68.30
2022-10-11T18:29:23.293Z,68.36
2022-10-11T18:34:26.949Z,68.24
2022-10-11T18:39:30.309Z,68.49
2022-10-11T18:44:35.444Z,68.25
2022-10-11T18:49:38.973Z,68.18
2022-10-11T18:54:42.524Z,68.62
2022-10-11T18:59:47.349Z,68.67
2022-10-11T19:04:52.773Z,68.76
2022-10-11T19:09:56.498Z,68.74
2022-10-11T19:15:01.935Z,69.47
2022-10-11T19:20:06.912Z,68.65
2022-10-11T19:25:10.882Z,69.13
2022-10-11T19:30:16.114Z,68.64
2022-10-11T19:35:20.178Z,69.23
2022-10-11T19:40:23.597Z,69.08
2022-10-11T19:45:28.472Z,69.28
2022-10-11T19:50:31.845Z,68.94
2022-10-11T19:55:36.240Z,69.26
2022-10-11T20:00:41.297Z,69.48
2022-10-11T20:05:44.716Z,69.21
2022-10-11T20:10:48.202Z,69.51
2022-10-11T20:15:58.086Z,69.97
2022-10-11T20:21:04.446Z,70.02
2022-10-11T20:26:09.205Z,69.73
2022-10-11T20:31:15.883Z,70.43
2022-10-11T20:36:20.905Z,70.36
2022-10-11T20:41:26.330Z,71.17
2022-10-11T20:46:32.723Z,71.78
2022-10-11T20:51:38.886Z,71.31
2022-10-11T20:56:42.367Z,71.65
2022-10-11T21:01:47.529Z,72.15
2022-10-11T21:06:51.185Z,72.54
2022-10-11T21:11:54.600Z,73.06
2022-10-11T21:16:59.500Z,73.00
2022-10-11T21:22:03.081Z,73.76
2022-10-11T21:27:06.493Z,73.79
2022-10-11T21:32:14.406Z,73.07
2022-10-11T21:37:18.105Z,73.48
2022-10-11T21:42:24.768Z,73.76
2022-10-11T21:47:32.337Z,73.67
2022-10-11T21:52:36.198Z,73.70
2022-10-11T21:57:39.851Z,73.63
2022-10-11T22:02:44.614Z,73.62
2022-10-11T22:07:48.022Z,73.82
2022-10-11T22:12:51.470Z,74.55
2022-10-11T22:17:56.279Z,73.93
2022-10-11T22:22:59.672Z,73.58
2022-10-11T22:28:03.140Z,73.76
2022-10-11T22:33:07.946Z,74.10
2022-10-11T22:38:11.589Z,74.44
2022-10-11T22:43:15.122Z,74.20
2022-10-11T22:48:19.968Z,74.39
2022-10-11T22:53:24.280Z,74.39
2022-10-11T22:58:27.924Z,74.98
2022-10-11T23:03:32.842Z,75.22
2022-10-11T23:08:39.178Z,75.12
2022-10-11T23:13:42.551Z,75.20
2022-10-11T23:18:47.437Z,75.42
2022-10-11T23:23:53.589Z,75.23
2022-10-11T23:28:57.414Z,75.06
2022-10-11T23:34:02.243Z,75.47
2022-10-11T23:39:05.857Z,75.32
2022-10-11T23:44:09.747Z,75.14
2022-10-11T23:49:14.645Z,75.06
2022-10-11T23:54:18.032Z,75.24
2022-10-11T23:59:21.403Z,75.29
